createdAt,value
2019-03-01T00:02:28.369Z,51.05
2019-03-01T00:05:18.033Z,54.88
2019-03-01T00:08:08.552Z,53.40
2019-03-01T00:10:46.964Z,56.48
2019-03-01T00:13:43.958Z,51.37
2019-03-01T00:16:31.655Z,59.20
2019-03-01T00:19:15.061Z,52.78
2019-03-01T00:22:08.561Z,57.62
2019-03-01T00:25:11.765Z,59.40
2019-03-01T00:28:15.126Z,54.00
2019-03-01T00:31:04.525Z,57.15
2019-03-01T00:33:42.070Z,50.35
2019-03-01T00:36:16.850Z,61.50
2019-03-01T00:39:18.243Z,60.65
2019-03-01T00:42:03.319Z,63.02
2019-03-01T00:44:48.383Z,53.38
2019-03-01T00:47:20.099Z,53.80
2019-03-01T00:49:51.154Z,57.38
2019-03-01T00:52:22.478Z,57.53
2019-03-01T00:54:53.866Z,54.83
2019-03-01T00:57:25.107Z,57.23
2019-03-01T00:59:56.237Z,57.83
2019-03-01T01:02:27.486Z,52.27
2019-03-01T01:04:58.665Z,57.60
2019-03-01T01:07:29.790Z,58.52
2019-03-01T01:10:01.042Z,59.00
2019-03-01T01:12:32.702Z,58.28
2019-03-01T01:15:05.806Z,61.95
2019-03-01T01:17:37.536Z,51.08
2019-03-01T01:20:09.803Z,49.70
2019-03-01T01:22:41.249Z,46.25
2019-03-01T01:25:12.287Z,40.43
2019-03-01T01:27:44.733Z,35.58
2019-03-01T01:30:17.142Z,40.15
2019-03-01T01:32:49.308Z,48.02
2019-03-01T01:35:20.362Z,30.37
2019-03-01T01:37:52.890Z,36.00
2019-03-01T01:40:24.327Z,29.60
2019-03-01T01:42:57.202Z,30.55
2019-03-01T01:45:28.375Z,34.05
2019-03-01T01:47:59.739Z,32.15
2019-03-01T01:50:30.946Z,32.33
2019-03-01T01:53:02.005Z,36.77
2019-03-01T01:55:33.193Z,33.67
2019-03-01T01:58:04.493Z,31.37
2019-03-01T02:00:35.790Z,38.48
2019-03-01T02:03:06.983Z,33.18
2019-03-01T02:05:38.264Z,30.75
2019-03-01T02:08:09.534Z,29.70
2019-03-01T02:10:40.735Z,31.05
2019-03-01T02:13:12.034Z,31.50
2019-03-01T02:15:43.176Z,29.95
2019-03-01T02:18:14.425Z,33.75
2019-03-01T02:20:45.468Z,35.48
2019-03-01T02:23:16.655Z,35.48
2019-03-01T02:25:47.853Z,32.23
2019-03-01T02:28:21.039Z,34.50
2019-03-01T02:30:57.527Z,42.03
2019-03-01T02:33:28.877Z,36.53
2019-03-01T02:36:00.325Z,34.88
2019-03-01T02:38:31.770Z,34.13
2019-03-01T02:41:02.721Z,35.90
2019-03-01T02:43:35.920Z,33.13
2019-03-01T02:46:07.253Z,37.63
2019-03-01T02:48:38.198Z,37.58
2019-03-01T02:51:09.482Z,36.88
2019-03-01T02:53:40.991Z,38.23
2019-03-01T02:56:12.239Z,36.42
2019-03-01T02:58:45.074Z,43.80
2019-03-01T03:01:16.490Z,41.90
2019-03-01T03:03:48.125Z,33.00
2019-03-01T03:06:21.053Z,33.30
2019-03-01T03:08:56.078Z,30.70
2019-03-01T03:11:27.483Z,30.05
2019-03-01T03:13:59.384Z,32.20
2019-03-01T03:16:32.124Z,35.30
2019-03-01T03:19:03.308Z,39.63
2019-03-01T03:21:34.547Z,43.52
2019-03-01T03:24:05.809Z,48.20
2019-03-01T03:26:37.344Z,45.63
2019-03-01T03:29:08.398Z,63.92
2019-03-01T03:31:39.332Z,59.70
2019-03-01T03:34:11.658Z,69.35
2019-03-01T03:36:42.757Z,68.25
2019-03-01T03:39:13.766Z,74.80
2019-03-01T03:41:46.897Z,51.68
2019-03-01T03:44:25.750Z,45.15
2019-03-01T03:46:56.966Z,41.10
2019-03-01T03:49:28.197Z,38.35
2019-03-01T03:51:59.416Z,40.80
2019-03-01T03:54:30.619Z,40.67
2019-03-01T03:57:01.651Z,46.80
2019-03-01T03:59:32.887Z,47.53
2019-03-01T04:02:04.102Z,49.35
2019-03-01T04:04:35.297Z,45.58
2019-03-01T04:07:06.543Z,58.42
2019-03-01T04:09:37.975Z,72.75
2019-03-01T04:12:09.118Z,75.80
2019-03-01T04:14:40.297Z,94.15
2019-03-01T04:17:11.683Z,135.32
2019-03-01T04:19:43.261Z,147.35
2019-03-01T04:22:14.510Z,152.10
2019-03-01T04:24:46.015Z,139.55
2019-03-01T04:27:19.203Z,112.97
2019-03-01T04:29:51.679Z,110.35
2019-03-01T04:32:23.079Z,127.67
2019-03-01T04:34:54.306Z,134.95
2019-03-01T04:37:25.779Z,124.00
2019-03-01T04:39:57.129Z,112.97
2019-03-01T04:42:28.491Z,112.28
2019-03-01T04:45:02.665Z,112.52
2019-03-01T04:47:36.698Z,106.83
2019-03-01T04:50:09.959Z,92.72
2019-03-01T04:52:41.442Z,80.00
2019-03-01T04:55:18.139Z,71.95
2019-03-01T04:57:49.380Z,69.47
2019-03-01T05:00:22.704Z,81.55
2019-03-01T05:02:53.837Z,86.53
2019-03-01T05:05:25.321Z,85.67
2019-03-01T05:07:56.890Z,83.92
2019-03-01T05:10:28.021Z,77.95
2019-03-01T05:12:59.090Z,82.08
2019-03-01T05:15:30.675Z,65.92
2019-03-01T05:18:03.758Z,51.73
2019-03-01T05:20:35.309Z,50.92
2019-03-01T05:23:07.066Z,41.45
2019-03-01T05:25:39.391Z,40.60
2019-03-01T05:28:10.595Z,39.20
2019-03-01T05:30:41.699Z,32.00
2019-03-01T05:33:13.244Z,32.00
2019-03-01T05:35:44.298Z,20.75
2019-03-01T05:38:21.689Z,21.33
2019-03-01T05:40:49.402Z,26.15
2019-03-01T05:43:21.764Z,23.25
2019-03-01T05:45:55.776Z,25.97
2019-03-01T05:48:27.201Z,28.70
2019-03-01T05:51:03.558Z,20.12
2019-03-01T05:53:34.899Z,18.27
2019-03-01T05:56:07.136Z,21.87
2019-03-01T05:58:40.515Z,20.80
2019-03-01T06:01:21.172Z,18.67
2019-03-01T06:04:04.401Z,22.85
2019-03-01T06:06:57.360Z,23.98
2019-03-01T06:09:40.740Z,26.00
2019-03-01T06:12:15.187Z,20.57
2019-03-01T06:15:07.162Z,24.37
2019-03-01T06:17:50.830Z,19.05
2019-03-01T06:20:37.606Z,26.00
2019-03-01T06:23:14.958Z,25.60
2019-03-01T06:25:52.003Z,17.95
2019-03-01T06:29:01.137Z,20.12
2019-03-01T06:31:44.795Z,21.07
2019-03-01T06:34:22.261Z,23.57
2019-03-01T06:36:59.730Z,23.15
2019-03-01T06:39:48.019Z,23.07
2019-03-01T06:42:41.264Z,32.85
2019-03-01T06:45:18.571Z,40.48
2019-03-01T06:47:51.944Z,45.05
2019-03-01T06:50:25.135Z,38.00
2019-03-01T06:52:56.477Z,54.57
2019-03-01T06:55:36.185Z,54.10
2019-03-01T06:58:18.938Z,45.65
2019-03-01T07:00:55.008Z,42.55
2019-03-01T07:03:26.507Z,54.25
2019-03-01T07:06:03.618Z,45.25
2019-03-01T07:08:35.671Z,39.27
2019-03-01T07:11:07.797Z,38.58
2019-03-01T07:13:40.962Z,39.78
2019-03-01T07:16:12.411Z,25.23
2019-03-01T07:18:44.653Z,26.70
2019-03-01T07:21:18.999Z,31.57
2019-03-01T07:23:51.437Z,32.08
2019-03-01T07:26:22.765Z,37.25
2019-03-01T07:28:56.240Z,25.55
2019-03-01T07:31:29.559Z,37.23
2019-03-01T07:34:08.659Z,38.95
2019-03-01T07:36:41.014Z,23.25
2019-03-01T07:39:13.690Z,37.13
2019-03-01T07:41:49.606Z,32.55
2019-03-01T07:44:28.874Z,21.48
2019-03-01T07:47:03.320Z,20.55
2019-03-01T07:49:38.151Z,19.67
2019-03-01T07:52:25.030Z,19.77
2019-03-01T07:54:56.305Z,19.17
2019-03-01T07:57:36.842Z,18.87
2019-03-01T08:00:18.050Z,8.45
2019-03-01T08:02:53.314Z,9.63
2019-03-01T08:05:24.768Z,13.88
2019-03-01T08:08:03.554Z,13.28
2019-03-01T08:10:33.814Z,13.35
2019-03-01T08:13:06.357Z,15.48
2019-03-01T08:15:45.049Z,16.93
2019-03-01T08:18:16.063Z,15.88
2019-03-01T08:20:47.388Z,14.18
2019-03-01T08:23:20.826Z,23.32
2019-03-01T08:25:55.633Z,22.87
2019-03-01T08:28:27.390Z,19.37
2019-03-01T08:30:59.033Z,27.93
2019-03-01T08:33:30.322Z,32.60
2019-03-01T08:36:07.189Z,13.58
2019-03-01T08:38:39.903Z,13.18
2019-03-01T08:41:25.200Z,15.23
2019-03-01T08:43:59.110Z,11.60
2019-03-01T08:46:30.644Z,12.58
2019-03-01T08:49:02.032Z,9.08
2019-03-01T08:51:35.172Z,9.40
2019-03-01T08:54:06.779Z,11.15
2019-03-01T08:56:38.194Z,11.80
2019-03-01T08:59:17.600Z,12.25
2019-03-01T09:01:50.390Z,16.85
2019-03-01T09:04:22.803Z,13.70
2019-03-01T09:06:54.267Z,15.20
2019-03-01T09:09:27.762Z,12.28
2019-03-01T09:12:01.202Z,13.70
2019-03-01T09:14:33.660Z,26.07
2019-03-01T09:17:06.248Z,23.50
2019-03-01T09:19:38.404Z,7.72
2019-03-01T09:22:09.647Z,15.28
2019-03-01T09:24:42.966Z,9.88
2019-03-01T09:27:17.171Z,11.63
2019-03-01T09:29:49.481Z,10.25
2019-03-01T09:32:24.089Z,15.08
2019-03-01T09:35:08.198Z,10.10
2019-03-01T09:37:40.273Z,12.13
2019-03-01T09:40:11.525Z,11.57
2019-03-01T09:42:42.954Z,11.20
2019-03-01T09:45:16.363Z,9.95
2019-03-01T09:47:47.956Z,11.43
2019-03-01T09:50:21.731Z,11.40
2019-03-01T09:52:55.662Z,9.75
2019-03-01T09:55:27.853Z,8.00
2019-03-01T09:58:00.292Z,10.65
2019-03-01T10:00:40.589Z,11.28
2019-03-01T10:03:13.052Z,11.55
2019-03-01T10:05:44.216Z,14.03
2019-03-01T10:08:15.598Z,12.10
2019-03-01T10:10:47.847Z,9.10
2019-03-01T10:13:19.087Z,12.95
2019-03-01T10:15:52.001Z,9.00
2019-03-01T10:18:24.400Z,11.10
2019-03-01T10:20:56.777Z,11.18
2019-03-01T10:23:29.801Z,19.82
2019-03-01T10:26:06.999Z,9.78
2019-03-01T10:28:44.612Z,12.05
2019-03-01T10:31:17.100Z,9.45
2019-03-01T10:33:48.683Z,8.68
2019-03-01T10:36:21.476Z,7.75
2019-03-01T10:38:53.880Z,11.18
2019-03-01T10:41:25.580Z,14.50
2019-03-01T10:43:58.583Z,16.40
2019-03-01T10:46:33.459Z,15.48
2019-03-01T10:49:06.410Z,16.70
2019-03-01T10:51:37.944Z,14.05
2019-03-01T10:54:13.612Z,10.93
2019-03-01T11:01:54.199Z,7.95
2019-03-01T11:04:25.672Z,8.80
2019-03-01T11:06:58.126Z,9.05
2019-03-01T11:09:33.262Z,6.72
2019-03-01T11:12:05.533Z,12.00
2019-03-01T11:14:38.447Z,11.10
2019-03-01T11:17:20.413Z,11.60
2019-03-01T11:19:51.758Z,10.00
2019-03-01T11:22:23.258Z,8.20
2019-03-01T11:24:54.909Z,10.38
2019-03-01T11:27:26.336Z,12.47
2019-03-01T11:30:02.633Z,7.92
2019-03-01T11:32:34.988Z,10.55
2019-03-01T11:35:06.497Z,13.13
2019-03-01T11:37:37.989Z,12.00
2019-03-01T11:40:13.347Z,7.90
2019-03-01T11:42:44.584Z,9.75
2019-03-01T11:45:20.733Z,11.18
2019-03-01T11:47:52.098Z,9.15
2019-03-01T11:50:24.549Z,9.53
2019-03-01T11:52:55.602Z,15.38
2019-03-01T11:55:28.144Z,10.63
2019-03-01T11:57:59.530Z,14.93
2019-03-01T12:00:30.777Z,8.43
2019-03-01T12:03:01.966Z,9.38
2019-03-01T12:05:34.561Z,8.70
2019-03-01T12:08:06.080Z,11.03
2019-03-01T12:10:37.732Z,12.60
2019-03-01T12:13:10.709Z,8.33
2019-03-01T12:15:42.147Z,8.03
2019-03-01T12:18:17.461Z,10.18
2019-03-01T12:20:54.788Z,16.82
2019-03-01T12:23:26.462Z,8.93
2019-03-01T12:26:05.951Z,13.45
2019-03-01T12:28:40.019Z,19.17
2019-03-01T12:31:11.460Z,5.87
2019-03-01T12:33:44.449Z,14.15
2019-03-01T12:36:15.910Z,8.95
2019-03-01T12:38:47.312Z,7.85
2019-03-01T12:41:19.809Z,7.58
2019-03-01T12:43:52.128Z,6.33
2019-03-01T12:46:23.345Z,11.28
2019-03-01T12:48:54.792Z,9.95
2019-03-01T12:51:27.430Z,6.03
2019-03-01T12:53:59.716Z,9.90
2019-03-01T12:56:32.314Z,5.75
2019-03-01T12:59:03.667Z,100.60
2019-03-01T13:01:35.029Z,23.30
2019-03-01T13:04:06.440Z,62.65
2019-03-01T13:06:38.979Z,10.80
2019-03-01T13:09:13.845Z,14.17
2019-03-01T13:11:48.636Z,5.20
2019-03-01T13:14:23.400Z,8.23
2019-03-01T13:16:58.550Z,8.03
2019-03-01T13:19:38.843Z,9.20
2019-03-01T13:22:12.599Z,12.75
2019-03-01T13:24:44.132Z,8.68
2019-03-01T13:27:17.498Z,7.55
2019-03-01T13:29:49.726Z,13.15
2019-03-01T13:32:23.176Z,8.23
2019-03-01T13:37:26.780Z,9.53
2019-03-01T13:40:01.652Z,11.73
2019-03-01T13:42:35.288Z,10.70
2019-03-01T13:45:11.874Z,8.20
2019-03-01T13:47:44.009Z,11.12
2019-03-01T13:50:19.271Z,8.90
2019-03-01T13:52:54.531Z,29.37
2019-03-01T13:55:27.692Z,16.57
2019-03-01T13:58:09.791Z,7.72
2019-03-01T14:00:45.609Z,6.58
2019-03-01T14:03:27.620Z,6.90
2019-03-01T14:05:57.716Z,6.17
2019-03-01T14:08:29.356Z,8.53
2019-03-01T14:11:02.728Z,13.62
2019-03-01T14:13:34.534Z,11.30
2019-03-01T14:16:06.211Z,8.08
2019-03-01T14:18:37.888Z,10.38
2019-03-01T14:21:10.383Z,14.25
2019-03-01T14:23:42.243Z,19.92
2019-03-01T14:26:15.109Z,10.82
2019-03-01T14:28:48.483Z,12.65
2019-03-01T14:31:20.459Z,13.20
2019-03-01T14:34:02.978Z,14.80
2019-03-01T14:36:34.480Z,11.48
2019-03-01T14:39:11.794Z,13.25
2019-03-01T14:41:44.292Z,14.38
2019-03-01T14:44:21.475Z,23.90
2019-03-01T14:46:55.990Z,12.90
2019-03-01T14:49:29.148Z,10.38
2019-03-01T14:52:02.139Z,11.65
2019-03-01T14:54:34.014Z,11.08
2019-03-01T14:57:10.670Z,9.05
2019-03-01T14:59:48.784Z,6.90
2019-03-01T15:02:26.151Z,12.50
2019-03-01T15:05:05.283Z,11.85
2019-03-01T15:07:38.529Z,13.15
2019-03-01T15:10:13.459Z,14.45
2019-03-01T15:12:45.311Z,13.50
2019-03-01T15:15:17.505Z,13.78
2019-03-01T15:17:57.029Z,11.85
2019-03-01T15:20:31.617Z,21.80
2019-03-01T15:23:06.244Z,27.27
2019-03-01T15:25:39.031Z,11.53
2019-03-01T15:28:23.319Z,12.70
2019-03-01T15:31:02.287Z,15.85
2019-03-01T15:33:33.928Z,15.20
2019-03-01T15:36:05.475Z,12.85
2019-03-01T15:38:37.323Z,10.38
2019-03-01T15:41:11.462Z,12.37
2019-03-01T15:43:49.435Z,22.13
2019-03-01T15:46:21.092Z,18.77
2019-03-01T15:48:52.855Z,20.88
2019-03-01T15:51:28.447Z,22.60
2019-03-01T15:56:39.488Z,22.15
2019-03-01T15:59:13.755Z,24.72
2019-03-01T16:01:47.131Z,30.40
2019-03-01T16:06:55.187Z,18.00
2019-03-01T16:09:25.307Z,13.93
2019-03-01T16:11:58.761Z,14.87
2019-03-01T16:14:34.225Z,8.80
2019-03-01T16:17:06.633Z,14.43
2019-03-01T16:19:38.287Z,12.35
2019-03-01T16:22:09.775Z,10.50
2019-03-01T16:24:45.053Z,11.53
2019-03-01T16:27:20.952Z,11.80
2019-03-01T16:29:52.703Z,14.70
2019-03-01T16:32:24.323Z,11.10
2019-03-01T16:34:55.862Z,11.53
2019-03-01T16:37:29.816Z,9.23
2019-03-01T16:40:03.372Z,12.90
2019-03-01T16:42:38.486Z,11.25
2019-03-01T16:45:14.287Z,16.75
2019-03-01T16:47:45.816Z,25.85
2019-03-01T16:50:20.852Z,19.10
2019-03-01T16:52:54.618Z,15.00
2019-03-01T16:55:29.693Z,13.90
2019-03-01T16:58:07.356Z,12.05
2019-03-01T17:00:38.939Z,12.45
2019-03-01T17:03:17.965Z,11.43
2019-03-01T17:05:50.658Z,18.92
2019-03-01T17:08:22.127Z,15.90
2019-03-01T17:10:53.549Z,11.18
2019-03-01T17:13:27.085Z,49.30
2019-03-01T17:16:03.010Z,8.15
2019-03-01T17:18:36.585Z,8.33
2019-03-01T17:21:12.538Z,9.08
2019-03-01T17:23:43.221Z,7.75
2019-03-01T17:26:15.825Z,8.70
2019-03-01T17:28:50.453Z,10.23
2019-03-01T17:31:27.951Z,6.72
2019-03-01T17:34:01.268Z,11.00
2019-03-01T17:36:35.343Z,10.00
2019-03-01T17:39:07.213Z,11.50
2019-03-01T17:41:44.859Z,10.88
2019-03-01T17:44:14.914Z,11.53
2019-03-01T17:46:49.202Z,9.68
2019-03-01T17:49:23.225Z,8.53
2019-03-01T17:51:56.504Z,9.35
2019-03-01T17:54:31.467Z,8.58
2019-03-01T17:57:03.013Z,11.48
2019-03-01T17:59:35.080Z,12.10
2019-03-01T18:02:07.046Z,10.35
2019-03-01T18:04:39.836Z,9.23
2019-03-01T18:07:11.482Z,10.55
2019-03-01T18:09:42.890Z,11.60
2019-03-01T18:12:17.425Z,11.78
2019-03-01T18:14:49.117Z,6.60
2019-03-01T18:17:22.027Z,10.75
2019-03-01T18:19:58.805Z,9.78
2019-03-01T18:22:29.219Z,12.43
2019-03-01T18:25:10.234Z,14.20
2019-03-01T18:27:41.840Z,14.10
2019-03-01T18:30:24.884Z,11.48
2019-03-01T18:33:02.324Z,9.78
2019-03-01T18:35:34.351Z,9.63
2019-03-01T18:38:11.910Z,10.35
2019-03-01T18:40:43.575Z,8.33
2019-03-01T18:43:15.125Z,10.05
2019-03-01T18:45:49.136Z,10.45
2019-03-01T18:48:23.348Z,8.00
2019-03-01T18:50:56.338Z,13.45
2019-03-01T18:53:30.657Z,12.25
2019-03-01T18:56:04.162Z,12.55
2019-03-01T18:58:35.490Z,9.65
2019-03-01T19:01:10.887Z,9.20
2019-03-01T19:03:42.313Z,12.82
2019-03-01T19:06:16.223Z,9.63
2019-03-01T19:08:49.803Z,17.05
2019-03-01T19:11:21.187Z,12.90
2019-03-01T19:13:55.135Z,16.57
2019-03-01T19:16:29.821Z,17.37
2019-03-01T19:19:01.768Z,17.95
2019-03-01T19:21:33.319Z,17.27
2019-03-01T19:24:08.036Z,18.10
2019-03-01T19:26:41.552Z,15.32
2019-03-01T19:29:13.112Z,16.45
2019-03-01T19:31:44.452Z,19.12
2019-03-01T19:34:16.901Z,11.50
2019-03-01T19:36:49.400Z,11.08
2019-03-01T19:39:21.072Z,11.15
2019-03-01T19:41:54.535Z,13.95
2019-03-01T19:44:28.891Z,9.67
2019-03-01T19:46:58.682Z,13.00
2019-03-01T19:49:30.156Z,16.02
2019-03-01T19:52:01.410Z,10.53
2019-03-01T19:54:35.723Z,10.03
2019-03-01T19:57:06.640Z,9.88
2019-03-01T19:59:37.990Z,10.43
2019-03-01T20:02:10.212Z,15.35
2019-03-01T20:04:46.065Z,14.47
2019-03-01T20:07:20.824Z,13.28
2019-03-01T20:09:52.094Z,13.75
2019-03-01T20:12:23.967Z,10.65
2019-03-01T20:14:55.404Z,10.88
2019-03-01T20:17:30.378Z,11.18
2019-03-01T20:20:01.487Z,8.30
2019-03-01T20:22:34.022Z,6.92
2019-03-01T20:25:08.179Z,6.72
2019-03-01T20:27:40.274Z,9.30
2019-03-01T20:30:32.617Z,11.38
2019-03-01T20:33:07.196Z,13.60
2019-03-01T20:35:38.561Z,7.15
2019-03-01T20:38:09.929Z,10.55
2019-03-01T20:40:41.076Z,7.40
2019-03-01T20:43:12.350Z,7.75
2019-03-01T20:45:43.764Z,7.10
2019-03-01T20:48:15.806Z,12.05
2019-03-01T20:50:50.988Z,10.03
2019-03-01T20:53:21.081Z,10.72
2019-03-01T20:55:52.388Z,9.23
2019-03-01T20:58:26.452Z,9.90
2019-03-01T21:03:36.205Z,8.98
2019-03-01T21:06:07.484Z,7.15
2019-03-01T21:08:41.632Z,8.73
2019-03-01T21:11:12.871Z,10.23
2019-03-01T21:13:45.721Z,8.35
2019-03-01T21:16:17.452Z,6.43
2019-03-01T21:18:49.723Z,6.87
2019-03-01T21:21:21.069Z,6.67
2019-03-01T21:23:55.187Z,10.43
2019-03-01T21:26:27.772Z,16.32
2019-03-01T21:28:59.025Z,11.78
2019-03-01T21:31:35.415Z,8.08
2019-03-01T21:34:07.045Z,9.05
2019-03-01T21:36:38.275Z,11.75
2019-03-01T21:39:09.733Z,11.38
2019-03-01T21:41:44.504Z,11.25
2019-03-01T21:44:16.043Z,13.48
2019-03-01T21:46:50.648Z,19.55
2019-03-01T21:49:24.973Z,21.45
2019-03-01T21:51:57.236Z,15.35
2019-03-01T21:54:29.698Z,30.52
2019-03-01T21:57:00.969Z,36.85
2019-03-01T21:59:33.170Z,21.30
2019-03-01T22:02:05.709Z,37.85
2019-03-01T22:04:38.211Z,32.35
2019-03-01T22:07:09.326Z,21.68
2019-03-01T22:09:41.539Z,27.70
2019-03-01T22:12:14.805Z,24.23
2019-03-01T22:14:49.053Z,21.55
2019-03-01T22:19:53.550Z,15.03
2019-03-01T22:22:24.904Z,19.95
2019-03-01T22:24:58.684Z,44.23
2019-03-01T22:27:28.801Z,53.78
2019-03-01T22:30:01.819Z,45.00
2019-03-01T22:32:34.629Z,44.00
2019-03-01T22:35:10.832Z,53.95
2019-03-01T22:37:42.118Z,47.00
2019-03-01T22:40:13.533Z,49.00
2019-03-01T22:42:49.819Z,43.73
2019-03-01T22:45:19.404Z,43.80
2019-03-01T22:47:51.009Z,60.08
2019-03-01T22:50:22.261Z,38.10
2019-03-01T22:52:54.435Z,40.38
2019-03-01T22:55:26.845Z,36.40
2019-03-01T22:58:05.569Z,37.13
2019-03-01T23:00:54.574Z,27.37
2019-03-01T23:03:26.441Z,37.67
2019-03-01T23:05:57.887Z,47.78
2019-03-01T23:08:31.800Z,30.10
2019-03-01T23:11:03.312Z,30.02
2019-03-01T23:13:36.656Z,27.20
2019-03-01T23:16:07.795Z,24.47
2019-03-01T23:18:40.543Z,27.60
2019-03-01T23:21:11.723Z,25.95
2019-03-01T23:23:42.972Z,22.62
2019-03-01T23:26:14.312Z,19.52
2019-03-01T23:28:52.626Z,27.27
2019-03-01T23:31:24.206Z,40.45
2019-03-01T23:33:55.628Z,34.23
2019-03-01T23:36:28.556Z,28.85
2019-03-01T23:38:59.867Z,16.90
2019-03-01T23:41:31.015Z,11.08
2019-03-01T23:44:06.106Z,23.57
2019-03-01T23:46:35.485Z,21.60
2019-03-01T23:49:07.048Z,20.65
2019-03-01T23:51:38.120Z,19.70
2019-03-01T23:54:09.986Z,24.45
2019-03-01T23:56:41.164Z,32.30
2019-03-01T23:59:12.712Z,24.23
